Flight Track Log - Related Links

Times and Time Zones

All times are in EDT time to prevent confusion due to time zone crossing. See the N245PE flight status page for this flight to view local times or setup timezone preferences in your user account.

Time Position Orientation Groundspeed Altitude Reporting Facility
EDT Latitude Longitude Course Direction KTS MPH feet Rate Location/Type
Thu 09:59:49 PM 38.9017 -112.9042 263° West 195 224 15,500  Level Salt Lake Center
Thu 10:00:50 PM 38.8964 -112.9683 264° West 192 221 16,600 1,024 Climbing Salt Lake Center
Thu 10:01:52 PM 38.8892 -113.0319 262° West 187 215 17,600 780 Climbing Salt Lake Center
Thu 10:02:00 PM 38.9059 -112.7899 264° West  Level FlightAware Approximate
Thu 10:02:53 PM 38.8803 -113.0958 260° West 184 212 18,200  Level Salt Lake Center
Thu 10:03:00 PM 38.9000 -112.8785 270° West  Level FlightAware Approximate
Thu 10:03:55 PM 38.8711 -113.1614 260° West 185 213 19,300  Level Salt Lake Center
Thu 10:04:56 PM 38.8658 -113.2261 264° West 185 213 20,300 976 Climbing Salt Lake Center
Thu 10:05:58 PM 38.8606 -113.2864 264° West 180 207 21,300 829 Climbing Salt Lake Center
Thu 10:06:59 PM 38.8556 -113.3478 264° West 176 203 22,000 341 Climbing Salt Lake Center
Thu 10:08:01 PM 38.8472 -113.4342 263° West 194 223 22,000  Level Salt Lake Center
Thu 10:09:02 PM 38.8389 -113.5172 263° West 222 255 22,000  Level Salt Lake Center
Thu 10:10:04 PM 38.8306 -113.6042 263° West 241 277 22,000  Level Salt Lake Center
Thu 10:11:06 PM 38.8217 -113.6931 263° West 251 289 22,000  Level Salt Lake Center
Thu 10:12:07 PM 38.8131 -113.7789 263° West 246 283 22,000  Level Salt Lake Center
Thu 10:13:09 PM 38.8053 -113.8664 264° West 248 285 22,000  Level Salt Lake Center
Thu 10:14:10 PM 38.7964 -113.9531 263° West 248 285 22,000  Level Salt Lake Center
Thu 10:15:12 PM 38.7853 -114.0564 262° West 245 282 22,000  Level Salt Lake Center
Thu 10:16:14 PM 38.7767 -114.1436 263° West 247 284 22,000  Level Salt Lake Center
Thu 10:17:15 PM 38.7675 -114.2311 262° West 248 285 22,000  Level Salt Lake Center
Thu 10:18:17 PM 38.7586 -114.3194 263° West 250 288 22,000  Level Salt Lake Center
Thu 10:19:18 PM 38.7467 -114.4114 261° West 257 296 22,000  Level Salt Lake Center
Thu 10:20:20 PM 38.7367 -114.4997 262° West 256 295 22,000  Level Salt Lake Center
Thu 10:21:21 PM 38.7269 -114.5869 262° West 252 290 22,000  Level Salt Lake Center
Thu 10:22:23 PM 38.7181 -114.6750 263° West 250 288 22,000  Level Salt Lake Center
Thu 10:23:25 PM 38.7081 -114.7633 262° West 251 289 22,000  Level Salt Lake Center
Thu 10:24:26 PM 38.6967 -114.8675 262° West 250 288 22,000  Level Salt Lake Center
Thu 10:25:28 PM 38.6878 -114.9569 263° West 250 288 22,000  Level Salt Lake Center
Thu 10:26:29 PM 38.6778 -115.0456 262° West 253 291 22,000  Level Salt Lake Center
Thu 10:27:31 PM 38.6678 -115.1336 262° West 251 289 22,000  Level Salt Lake Center
Thu 10:28:32 PM 38.6575 -115.2225 262° West 252 290 22,000  Level Salt Lake Center
Thu 10:29:34 PM 38.6483 -115.3119 263° West 255 293 22,000  Level Salt Lake Center
Thu 10:30:35 PM 38.6383 -115.4050 262° West 255 293 22,000  Level Salt Lake Center
Thu 10:31:37 PM 38.6283 -115.4964 262° West 259 298 22,000  Level Salt Lake Center
Thu 10:32:38 PM 38.6156 -115.6050 261° West 260 299 22,000  Level Salt Lake Center
Thu 10:33:40 PM 38.6053 -115.6956 262° West 258 297 22,000  Level Salt Lake Center
Thu 10:34:41 PM 38.5947 -115.7869 262° West 259 298 22,000  Level Salt Lake Center
Thu 10:35:43 PM 38.5850 -115.8778 262° West 260 299 22,000  Level Salt Lake Center
Thu 10:36:44 PM 38.5739 -115.9692 261° West 260 299 22,000  Level Salt Lake Center
Thu 10:37:46 PM 38.5636 -116.0589 262° West 257 296 22,000  Level Salt Lake Center
Thu 10:38:47 PM 38.5522 -116.1500 261° West 259 298 22,000  Level Salt Lake Center
Thu 10:39:23 PM 38.5447 -116.2036 260° West 258 297 22,000  Level Oakland Center
Thu 10:40:24 PM 38.5339 -116.2953 261° West 260 299 22,000  Level Oakland Center
Thu 10:41:25 PM 38.5231 -116.3858 261° West 260 299 22,000  Level Oakland Center
Thu 10:42:27 PM 38.5086 -116.4939 260° West 258 297 22,000  Level Oakland Center
Thu 10:43:28 PM 38.4981 -116.5858 262° West 260 299 22,000  Level Oakland Center
Thu 10:44:29 PM 38.4861 -116.6769 261° West 261 300 22,000  Level Oakland Center
Thu 10:45:30 PM 38.4753 -116.7675 261° West 259 298 22,000  Level Oakland Center
Thu 10:46:31 PM 38.4636 -116.8569 261° West 258 297 22,000  Level Oakland Center
Thu 10:47:32 PM 38.4522 -116.9486 261° West 261 300 22,000  Level Oakland Center
Thu 10:48:33 PM 38.4408 -117.0386 261° West 260 299 22,000  Level Oakland Center
Thu 10:49:35 PM 38.4289 -117.1292 260° West 261 300 22,000  Level Oakland Center
Thu 10:50:05 PM 38.4228 -117.1828 262° West 260 299 22,000  Level Salt Lake Center
Thu 10:51:06 PM 38.4117 -117.2722 261° West 258 297 22,000  Level Salt Lake Center
Thu 10:52:08 PM 38.3878 -117.3575 250° West 257 296 22,000  Level Salt Lake Center
Thu 10:52:38 PM 38.3719 -117.4083 248° West 258 297 22,000 198 Level Oakland Center
Thu 10:53:39 PM 38.3481 -117.4928 250° West 256 295 22,300 344 Climbing Oakland Center
Thu 10:54:40 PM 38.3239 -117.5725 249° West 246 283 22,700 443 Climbing Oakland Center
Thu 10:55:41 PM 38.3031 -117.6525 252° West 240 276 23,200 488 Climbing Oakland Center
Thu 10:56:43 PM 38.2842 -117.7308 253° West 235 270 23,700 390 Climbing Oakland Center
Thu 10:57:44 PM 38.2636 -117.8103 252° West 235 270 24,000 148 Climbing Oakland Center
Thu 10:58:45 PM 38.2442 -117.8939 254° West 246 283 24,000  Level Oakland Center
Thu 10:59:46 PM 38.2258 -117.9833 255° West 259 298 24,000  Level Oakland Center
Thu 11:00:47 PM 38.2022 -118.0903 254° West 262 302 24,000  Level Oakland Center
Thu 11:01:48 PM 38.1831 -118.1769 254° West 264 304 24,000  Level Oakland Center
Thu 11:02:49 PM 38.1606 -118.2650 252° West 263 303 24,000  Level Oakland Center
Thu 11:03:50 PM 38.1381 -118.3533 252° West 263 303 24,000  Level Oakland Center
Thu 11:04:51 PM 38.1181 -118.4450 255° West 263 303 24,000  Level Oakland Center
Thu 11:05:53 PM 38.0992 -118.5364 255° West 267 307 24,000  Level Oakland Center
Thu 11:06:54 PM 38.0828 -118.6250 257° West 260 299 24,000  Level Oakland Center
Thu 11:07:55 PM 38.0556 -118.7106 248° West 262 302 24,000  Level Oakland Center
Thu 11:08:56 PM 38.0161 -118.7869 237° Southwest 259 298 24,000  Level Oakland Center
Thu 11:09:57 PM 37.9783 -118.8614 237° Southwest 254 292 24,000  Level Oakland Center
Thu 11:10:58 PM 37.9394 -118.9339 236° Southwest 251 289 24,000  Level Oakland Center
Thu 11:11:59 PM 37.9044 -119.0111 240° Southwest 252 290 24,000  Level Oakland Center
Thu 11:13:00 PM 37.9053 -119.1242 271° West 266 306 24,000  Level Oakland Center
Thu 11:14:02 PM 37.9025 -119.2133 268° West 260 299 24,000  Level Oakland Center
Thu 11:15:03 PM 37.9000 -119.3061 268° West 263 303 24,000  Level Oakland Center
Thu 11:16:04 PM 37.8972 -119.3967 268° West 260 299 24,000  Level Oakland Center
Thu 11:17:05 PM 37.8950 -119.4886 268° West 263 303 24,000  Level Oakland Center
Thu 11:18:06 PM 37.8931 -119.5781 268° West 257 296 24,000  Level Oakland Center
Thu 11:19:07 PM 37.8911 -119.6678 268° West 255 293 24,000  Level Oakland Center
Thu 11:20:09 PM 37.8878 -119.7581 267° West 256 295 24,000 -195 Level Oakland Center
Thu 11:21:10 PM 37.8853 -119.8506 268° West 260 299 23,600 -443 Descending Oakland Center
Thu 11:22:11 PM 37.8803 -119.9442 266° West 265 305 23,100 -590 Descending Oakland Center
Thu 11:23:12 PM 37.8772 -120.0428 268° West 277 319 22,400 -787 Descending Oakland Center
Thu 11:24:13 PM 37.8733 -120.1647 268° West 286 329 21,500 -787 Descending Oakland Center
Thu 11:25:14 PM 37.8694 -120.2675 267° West 290 334 20,800 -683 Descending Oakland Center
Thu 11:26:16 PM 37.8664 -120.3675 268° West 287 330 20,100 -390 Descending Oakland Center
Thu 11:27:17 PM 37.8628 -120.4681 267° West 286 329 20,000 -49 Descending Oakland Center
Thu 11:28:18 PM 37.8592 -120.5631 267° West 271 312 20,000  Level Oakland Center
Thu 11:29:19 PM 37.8553 -120.6567 267° West 267 307 20,000  Level Oakland Center
Thu 11:30:20 PM 37.8478 -120.7494 264° West 264 304 20,000  Level Oakland Center
Thu 11:31:21 PM 37.8292 -120.8367 255° West 256 295 20,000 -443 Level Oakland Center
Thu 11:32:22 PM 37.8103 -120.9272 255° West 263 303 19,100 -1,171 Descending Oakland Center
Thu 11:33:24 PM 37.7886 -121.0278 255° West 289 333 17,600 -1,463 Descending Oakland Center
Thu 11:34:25 PM 37.7678 -121.1278 255° West 294 338 16,100 -1,475 Descending Oakland Center
Thu 11:35:26 PM 37.7464 -121.2306 255° West 299 344 14,600 -1,426 Descending Oakland Center
Thu 11:36:27 PM 37.7244 -121.3319 255° West 299 344 13,200 -1,574 Descending Oakland Center
Thu 11:37:28 PM 37.6994 -121.4497 255° West 291 335 11,400 -1,574 Descending Oakland Center
Thu 11:38:29 PM 37.6803 -121.5397 255° West 282 325 10,000 -1,317 Descending Oakland Center
Thu 11:39:31 PM 37.6611 -121.6286 255° West 267 307 8,700 -1,548 Descending Oakland Center
Thu 11:40:33 PM 37.6500 -121.7333 262° West 262 302 6,800 -1,770 Descending Northern Cal TRACON
Thu 11:41:33 PM 37.6500 -121.8167 270° West 256 295 5,100 -1,600 Descending Northern Cal TRACON
Thu 11:42:33 PM 37.6500 -121.9167 270° West 242 278 3,600 -1,100 Descending Northern Cal TRACON
Thu 11:43:33 PM 37.6500 -121.9833 270° West 207 238 2,900 -1,000 Descending Northern Cal TRACON
Thu 11:44:33 PM 37.6333 -122.0500 252° West 175 201 1,600 -1,100 Descending Northern Cal TRACON
Thu 11:45:33 PM 37.6500 -122.0833 302° West 99 114 700 -900 Descending Northern Cal TRACON
Thu 11:48:00 PM 37.6500 -122.1167 282° West  Level FlightAware Approximate
Thu 11:55:00 PM 37.6589 -122.1217 282° West  Level Estimated

Login

Don't have an account? Register now (free) for customized features, flight alerts, and more!